Pagrindinis puslapis
METAR-TAF:

METAR-TAF

Oro uostai :

Karačis, Pakistanas

platuma: 24-54N, ilguma: 067-08E, Aukštis: 21 m

Dabartinis oras

Ataskaita buvo paskelbta 40 minutes, ne 05:30 UTC
Vėjas 20 kt iš Šiaurės Rytų
Temperatūra 23°C
Drėgmė 22%
Slėgis 1022 hPa
Matomumas: 7000 m
Su prošvaistėmis ne aukštis 10000 ft

METAR: OPKC 060530Z 04020KT 7000 BKN100 23/00 Q1022 TEMPO 04020G25KT

Laikas: 11:10 (06:10 UTC)

Prognozė

Ataskaita buvo paskelbta 2 valandos ir 40 minutes, ne 03:30 UTC
Prognozė galioja nuo 06 metu 06 UTC su 07 metu 12 UTC
Vėjas 10 kt iš Šiaurės Rytų su gūsio iki 20 kt
Matomumas: 6000 m
Išsisklaidę debesys ne aukštis 10000 ft
Nuo 06 metu 1800 UTC
Vėjas 10 kt iš Šiaurės Rytų
Matomumas: 5000 m
migla
Laikinai
nuo 07 metu 00 UTC su 07 metu 04 UTC
Vėjas 8 kt iš Šiaurės/Šiaurės Rytų
Matomumas: 4000 m
migla
Nuo 07 metu 0600 UTC
Vėjas 8 kt iš Šiaurės Rytų su gūsio iki 18 kt
Matomumas: 6000 m

TAF: OPKC 060330Z 0606/0712 05010G20KT 6000 SCT100 FM061800 04010KT 5000 HZ NSC TEMPO 0700/0704 03008KT 4000 HZ NSC FM070600 05008G18KT 6000 NSC

Orai ataskaitas ir orų prognozės (METAR, TAF).

turimą stotys yra geltonos ir raudonos taškus žemėlapyje.

Perkelti pele per norėdami pamatyti stoties vardą.

Tada spustelėkite, norėdami matyti oro stebėjimo ir prognozės.

Norėdami pakeisti žemėlapį: spustelėkite ant žalios mygtukų su juodo kryžiaus žemyn,; žalią mygtuką su brūkšneliu, jei norite nutolinti; arba žalių rodyklių gretimoms žemėlapius.


METAR-TAF: